Jacksonville Naval Air Station
KNIP : now visible

Airfield :











YOU CAN JOIN US ON...

 
LOGIN :

Register | Disclaimer

   EN    FR    IT 

 









Legend :    VFR   Marginal VFR   IFR   Intensive IFR   Very Intensive IFR
Visi :
Ceiling :
>= 8 km
>= 3000ft
5 to 8 km
1000 to 3000 ft
1500m to 5 km
500 to 1000 ft
800 to 1500m
200 to 500 ft
< 800m
< 200 ft
Symbols :   Thunderstorms  Fog  Heavy snow  Heavy precipitations  Wind > 20 kt






- Airport Elevation : 21 ft


KNIP - Jacksonville Naval Air Station

CURRENT METAR :
  • 052353Z 00000KT 10SM FEW020 BKN045 BKN100 BKN250 26/25 A3005 RMK AO2 TSE08 SLP171 T2 SET 60024 T02560250 10283 20250 53007

EXPIRED METARs :
  • 052317Z 21003KT 10SM FEW010 BKN040 BKN100 BKN250 26/25 A3005 RMK AO2 TSE08 LTG DSNT E CB DSNT E T1 SET T02610250
  • 052306Z 17004KT 10SM TS FEW010 BKN040 BKN100 BKN250 26/25 A3005 RMK AO2 LTG DSNT E CB DSNT E T1 SET T02560250
  • 052253Z 20005KT 10SM TS FEW008 BKN025CB BKN040 OVC150 26/25 A3003 RMK AO2 RAE15 TSB20E21B27 SLP166 OCNL LTGIC VC NE TS VC NE MOV NE T1 SET P0001 T02610250
  • 052228Z 20009KT 10SM TS FEW008 BKN025CB BKN040 OVC150 26/25 A3004 RMK AO2 RAE15 TSB20E21B27 OCNL LTGIC VC NE TS VC NE MOV NE T1 SET P0001 T02610250
  • 052153Z 17006KT 8SM -RA BKN025CB BKN040 OVC250 26/25 A3003 RMK AO2 RAB20E26B38 TSB21E26 SLP164 CB VC NE MOV NE T1 SET P0023 T02560250
  • 052143Z 20007KT 1 1/2SM RA BR BKN025CB BKN040 OVC250 25/24 A3003 RMK AO2 RAB20E26B38 TSB21E26 CB VC NE MOV NE T1 SET P0023 T02500244
  • 052126Z COR 20009KT 5SM -SHRA BR BKN025CB BKN040 OVC250 26/24 A3004 RMK AO2 RAB20E26 TSB21E26 CB VC NE MOV NE T1 SET P0011 T02610244
  • 052122Z VRB05KT 2SM -TSRA BR BKN020CB BKN040 OVC250 27/25 A3004 RMK AO2 RAB20 TSB21 OCNL LTGICCG VC SE TS OHD MOV NE T1 SET P0010 T02720250

TAF TAF KNIP
Valid from the 05 at 23:00 until the 06 at 23:00 UTC


0523/0623 21006KT 9999 VCTS FEW015 SCT025CB BKN090 OVC250 QNH3000INS
TEMPO 0523/0600 8000 -TSRA FEW009 BKN025CB BKN090
FM060200 20005KT 9999 VCSH SCT008 BKN030 BKN100 QNH3001INS
TEMPO 0602/0606 VRB06KT 9000 -RA OVC010
FM060600 17008KT 9999 VCSH FEW020 SCT080 BKN250 QNH3003INS
FM061800 21008KT 9999 VCSH SCT030 BKN250 QNH3001INS T25/0610Z T29/0619Z FN20077
KZJX FIR / North America



MET'MAP, your aeronautical weather chart ! - Copyright ORBIFLY December 2007 - Disclaimer

ORBIFLY MET'MAP TEAM :

Programming & Development : Alexandra Zaïnal
Concept & original design : Baudouin d'Aumeries
Assistance for programming : Marc-Olivier Méhu
Technical & hardware support : Manuel Goepfert

Contact : metmap@orbifly.com




SOURCES & CREDITS :

   NOAA       Earth
Advisory